UAL155 PTKK-PTPN
Flight info
| Callsign | UAL155 |
|---|---|
| Flight time | 1h 4m |
| Altitude | 35000 |
| Route | MICNO R584 BIRUQ |
| Aircraft | B738/M-SDE2E3FGHIRWXY/LB1 |
Departure
| Time | 2026-04-19 03:13 |
|---|---|
| Airport | Chuuk International Airport (PTKK) |
Arrival
| Time | 2026-04-19 04:17 |
|---|---|
| Airport | Pohnpei International Airport (PTPN) |
| Time | Latitude | Longitude | Altitude | Speed | Heading |
|---|---|---|---|---|---|
| 2026-04-19 03:03 | 7.45820 | 151.84148 | 13 ft | 0 kts | 182° |
| 2026-04-19 03:11 | 7.45813 | 151.84146 | 13 ft | 4 kts | 191° |
| 2026-04-19 03:11 | 7.45813 | 151.84117 | 13 ft | 10 kts | 313° |
| 2026-04-19 03:11 | 7.45857 | 151.84071 | 12 ft | 0 kts | 314° |
| 2026-04-19 03:11 | 7.45880 | 151.84040 | 11 ft | 14 kts | 295° |
| 2026-04-19 03:12 | 7.45814 | 151.83929 | 9 ft | 26 kts | 224° |
| 2026-04-19 03:12 | 7.45677 | 151.83789 | 9 ft | 21 kts | 212° |
| 2026-04-19 03:12 | 7.45620 | 151.83718 | 6 ft | 3 kts | 357° |
| 2026-04-19 03:12 | 7.45634 | 151.83731 | 7 ft | 0 kts | 42° |
| 2026-04-19 03:13 | 7.45667 | 151.83765 | 8 ft | 34 kts | 45° |
| 2026-04-19 03:13 | 7.46047 | 151.84158 | 8 ft | 119 kts | 46° |
| 2026-04-19 03:13 | 7.46760 | 151.84901 | 302 ft | 159 kts | 46° |
| 2026-04-19 03:13 | 7.47482 | 151.85797 | 1025 ft | 174 kts | 62° |
| 2026-04-19 03:14 | 7.47777 | 151.86968 | 1960 ft | 168 kts | 91° |
| 2026-04-19 03:14 | 7.47609 | 151.88131 | 2761 ft | 175 kts | 104° |
| 2026-04-19 03:14 | 7.47276 | 151.89434 | 3073 ft | 208 kts | 104° |
| 2026-04-19 03:14 | 7.46923 | 151.90938 | 3291 ft | 234 kts | 103° |
| 2026-04-19 03:15 | 7.46587 | 151.92609 | 3615 ft | 255 kts | 101° |
| 2026-04-19 03:15 | 7.46278 | 151.94429 | 4092 ft | 269 kts | 99° |
| 2026-04-19 03:15 | 7.46006 | 151.96318 | 4929 ft | 274 kts | 97° |
| 2026-04-19 03:15 | 7.45766 | 151.98221 | 5871 ft | 274 kts | 97° |
| 2026-04-19 03:16 | 7.45549 | 152.00143 | 6713 ft | 278 kts | 96° |
| 2026-04-19 03:16 | 7.45349 | 152.02086 | 7548 ft | 280 kts | 96° |
| 2026-04-19 03:16 | 7.45160 | 152.04048 | 8376 ft | 283 kts | 96° |
| 2026-04-19 03:16 | 7.44979 | 152.06004 | 9208 ft | 285 kts | 95° |
| 2026-04-19 03:17 | 7.44798 | 152.08004 | 10024 ft | 288 kts | 95° |
| 2026-04-19 03:17 | 7.44616 | 152.10051 | 10493 ft | 304 kts | 95° |
| 2026-04-19 03:17 | 7.44422 | 152.12263 | 10670 ft | 328 kts | 95° |
| 2026-04-19 03:17 | 7.44218 | 152.14599 | 11125 ft | 339 kts | 95° |
| 2026-04-19 03:18 | 7.44010 | 152.16985 | 11789 ft | 343 kts | 95° |
| 2026-04-19 03:18 | 7.43802 | 152.19391 | 12500 ft | 346 kts | 95° |
| 2026-04-19 03:18 | 7.43591 | 152.21816 | 13183 ft | 350 kts | 95° |
| 2026-04-19 03:18 | 7.43378 | 152.24271 | 13835 ft | 354 kts | 95° |
| 2026-04-19 03:19 | 7.43164 | 152.26750 | 14420 ft | 357 kts | 95° |
| 2026-04-19 03:19 | 7.42947 | 152.29246 | 15038 ft | 359 kts | 95° |
| 2026-04-19 03:19 | 7.42728 | 152.31761 | 15646 ft | 362 kts | 95° |
| 2026-04-19 03:19 | 7.42507 | 152.34297 | 16241 ft | 365 kts | 96° |
| 2026-04-19 03:20 | 7.42306 | 152.36855 | 16828 ft | 368 kts | 95° |
| 2026-04-19 03:20 | 7.42124 | 152.39438 | 17418 ft | 371 kts | 95° |
| 2026-04-19 03:20 | 7.41948 | 152.42041 | 17988 ft | 374 kts | 95° |
| 2026-04-19 03:20 | 7.41772 | 152.44664 | 18500 ft | 377 kts | 95° |
| 2026-04-19 03:21 | 7.41593 | 152.47309 | 18992 ft | 379 kts | 95° |
| 2026-04-19 03:21 | 7.41412 | 152.49970 | 19481 ft | 382 kts | 95° |
| 2026-04-19 03:21 | 7.41229 | 152.52646 | 19971 ft | 384 kts | 95° |
| 2026-04-19 03:21 | 7.41043 | 152.55338 | 20467 ft | 386 kts | 94° |
| 2026-04-19 03:22 | 7.40856 | 152.58044 | 20954 ft | 388 kts | 94° |
| 2026-04-19 03:22 | 7.40667 | 152.60764 | 21409 ft | 391 kts | 94° |
| 2026-04-19 03:22 | 7.40476 | 152.63508 | 21851 ft | 394 kts | 94° |
| 2026-04-19 03:22 | 7.40283 | 152.66265 | 22289 ft | 396 kts | 94° |
| 2026-04-19 03:23 | 7.40089 | 152.69043 | 22722 ft | 398 kts | 94° |
| 2026-04-19 03:23 | 7.39894 | 152.71835 | 23144 ft | 401 kts | 94° |
| 2026-04-19 03:23 | 7.39698 | 152.74643 | 23541 ft | 403 kts | 94° |
| 2026-04-19 03:23 | 7.39500 | 152.77472 | 23877 ft | 406 kts | 94° |
| 2026-04-19 03:24 | 7.39301 | 152.80311 | 24217 ft | 408 kts | 94° |
| 2026-04-19 03:24 | 7.39101 | 152.83165 | 24551 ft | 410 kts | 94° |
| 2026-04-19 03:24 | 7.38899 | 152.86035 | 24883 ft | 412 kts | 94° |
| 2026-04-19 03:24 | 7.38699 | 152.88883 | 25203 ft | 414 kts | 94° |
| 2026-04-19 03:25 | 7.38495 | 152.91782 | 25524 ft | 416 kts | 94° |
| 2026-04-19 03:25 | 7.38290 | 152.94696 | 25840 ft | 418 kts | 93° |
| 2026-04-19 03:25 | 7.38084 | 152.97626 | 26154 ft | 420 kts | 93° |
| 2026-04-19 03:25 | 7.37876 | 153.00570 | 26467 ft | 422 kts | 93° |
| 2026-04-19 03:26 | 7.37666 | 153.03527 | 26772 ft | 425 kts | 93° |
| 2026-04-19 03:26 | 7.37456 | 153.06501 | 27077 ft | 427 kts | 93° |
| 2026-04-19 03:26 | 7.37245 | 153.09488 | 27376 ft | 429 kts | 93° |
| 2026-04-19 03:26 | 7.37032 | 153.12493 | 27671 ft | 431 kts | 93° |
| 2026-04-19 03:27 | 7.36819 | 153.15507 | 27952 ft | 433 kts | 93° |
| 2026-04-19 03:27 | 7.36604 | 153.18538 | 28232 ft | 435 kts | 93° |
| 2026-04-19 03:27 | 7.36388 | 153.21586 | 28509 ft | 437 kts | 93° |
| 2026-04-19 03:27 | 7.36170 | 153.24645 | 28785 ft | 439 kts | 93° |
| 2026-04-19 03:28 | 7.35952 | 153.27718 | 29054 ft | 441 kts | 93° |
| 2026-04-19 03:28 | 7.35732 | 153.30804 | 29324 ft | 443 kts | 93° |
| 2026-04-19 03:28 | 7.35511 | 153.33898 | 29623 ft | 443 kts | 93° |
| 2026-04-19 03:28 | 7.35290 | 153.36992 | 30006 ft | 442 kts | 93° |
| 2026-04-19 03:29 | 7.35069 | 153.40076 | 30363 ft | 440 kts | 93° |
| 2026-04-19 03:29 | 7.34849 | 153.43152 | 30670 ft | 440 kts | 93° |
| 2026-04-19 03:29 | 7.34629 | 153.46233 | 30949 ft | 441 kts | 93° |
| 2026-04-19 03:29 | 7.34408 | 153.49313 | 31254 ft | 441 kts | 93° |
| 2026-04-19 03:30 | 7.34188 | 153.52393 | 31593 ft | 440 kts | 93° |
| 2026-04-19 03:30 | 7.33967 | 153.55461 | 31936 ft | 439 kts | 93° |
| 2026-04-19 03:30 | 7.33747 | 153.58530 | 32245 ft | 439 kts | 93° |
| 2026-04-19 03:30 | 7.33526 | 153.61601 | 32555 ft | 439 kts | 93° |
| 2026-04-19 03:31 | 7.33305 | 153.64666 | 32884 ft | 439 kts | 93° |
| 2026-04-19 03:31 | 7.33084 | 153.67731 | 33216 ft | 438 kts | 93° |
| 2026-04-19 03:31 | 7.32864 | 153.70792 | 33526 ft | 438 kts | 93° |
| 2026-04-19 03:31 | 7.32643 | 153.73851 | 33834 ft | 438 kts | 93° |
| 2026-04-19 03:32 | 7.32422 | 153.76907 | 34147 ft | 437 kts | 93° |
| 2026-04-19 03:32 | 7.32202 | 153.79949 | 34482 ft | 435 kts | 93° |
| 2026-04-19 03:32 | 7.31985 | 153.82943 | 34762 ft | 434 kts | 93° |
| 2026-04-19 03:32 | 7.31765 | 153.85980 | 34889 ft | 437 kts | 93° |
| 2026-04-19 03:33 | 7.31544 | 153.89044 | 34886 ft | 440 kts | 93° |
| 2026-04-19 03:33 | 7.31097 | 153.95185 | 34883 ft | 437 kts | 93° |
| 2026-04-19 03:34 | 7.30656 | 154.01246 | 34886 ft | 432 kts | 93° |
| 2026-04-19 03:34 | 7.30216 | 154.07283 | 34894 ft | 432 kts | 94° |
| 2026-04-19 03:35 | 7.29775 | 154.13322 | 34893 ft | 433 kts | 94° |
| 2026-04-19 03:35 | 7.29334 | 154.19366 | 34888 ft | 433 kts | 94° |
| 2026-04-19 03:36 | 7.28892 | 154.25413 | 34889 ft | 433 kts | 94° |
| 2026-04-19 03:36 | 7.28447 | 154.31462 | 34891 ft | 433 kts | 94° |
| 2026-04-19 03:37 | 7.28002 | 154.37510 | 34890 ft | 433 kts | 94° |
| 2026-04-19 03:37 | 7.27556 | 154.43557 | 34891 ft | 433 kts | 94° |
| 2026-04-19 03:38 | 7.27110 | 154.49606 | 34890 ft | 433 kts | 94° |
| 2026-04-19 03:38 | 7.26662 | 154.55661 | 34887 ft | 433 kts | 94° |
| 2026-04-19 03:39 | 7.26214 | 154.61711 | 34886 ft | 433 kts | 94° |
| 2026-04-19 03:39 | 7.25765 | 154.67759 | 34888 ft | 433 kts | 94° |
| 2026-04-19 03:40 | 7.25315 | 154.73809 | 34885 ft | 433 kts | 94° |
| 2026-04-19 03:40 | 7.24865 | 154.79854 | 34884 ft | 433 kts | 94° |
| 2026-04-19 03:41 | 7.24414 | 154.85894 | 34887 ft | 432 kts | 94° |
| 2026-04-19 03:41 | 7.23963 | 154.91930 | 34884 ft | 432 kts | 94° |
| 2026-04-19 03:42 | 7.23510 | 154.97968 | 34888 ft | 432 kts | 94° |
| 2026-04-19 03:42 | 7.23058 | 155.03997 | 34889 ft | 432 kts | 94° |
| 2026-04-19 03:43 | 7.22605 | 155.10022 | 34887 ft | 431 kts | 94° |
| 2026-04-19 03:43 | 7.22152 | 155.16037 | 34887 ft | 431 kts | 94° |
| 2026-04-19 03:44 | 7.21699 | 155.22049 | 34884 ft | 430 kts | 94° |
| 2026-04-19 03:44 | 7.21245 | 155.28054 | 34885 ft | 430 kts | 94° |
| 2026-04-19 03:45 | 7.20790 | 155.34057 | 34885 ft | 430 kts | 94° |
| 2026-04-19 03:45 | 7.20335 | 155.40057 | 34885 ft | 430 kts | 94° |
| 2026-04-19 03:46 | 7.19883 | 155.46013 | 34885 ft | 430 kts | 94° |
| 2026-04-19 03:46 | 7.19426 | 155.52012 | 34885 ft | 430 kts | 94° |
| 2026-04-19 03:47 | 7.18969 | 155.58011 | 34885 ft | 430 kts | 94° |
| 2026-04-19 03:47 | 7.18511 | 155.64010 | 34889 ft | 430 kts | 94° |
| 2026-04-19 03:48 | 7.18052 | 155.70009 | 34881 ft | 430 kts | 94° |
| 2026-04-19 03:48 | 7.17592 | 155.76007 | 34882 ft | 429 kts | 94° |
| 2026-04-19 03:49 | 7.17133 | 155.81993 | 34877 ft | 426 kts | 94° |
| 2026-04-19 03:49 | 7.16906 | 155.84945 | 34621 ft | 421 kts | 94° |
| 2026-04-19 03:49 | 7.16681 | 155.87864 | 34334 ft | 414 kts | 94° |
| 2026-04-19 03:49 | 7.16460 | 155.90742 | 33959 ft | 411 kts | 94° |
| 2026-04-19 03:50 | 7.16314 | 155.92635 | 33694 ft | 409 kts | 94° |
| 2026-04-19 03:50 | 7.16095 | 155.95478 | 33275 ft | 406 kts | 94° |
| 2026-04-19 03:50 | 7.15877 | 155.98297 | 32880 ft | 402 kts | 94° |
| 2026-04-19 03:50 | 7.15661 | 156.01095 | 32491 ft | 399 kts | 94° |
| 2026-04-19 03:51 | 7.15446 | 156.03875 | 32108 ft | 396 kts | 94° |
| 2026-04-19 03:51 | 7.15233 | 156.06631 | 31730 ft | 394 kts | 94° |
| 2026-04-19 03:51 | 7.15021 | 156.09370 | 31355 ft | 391 kts | 94° |
| 2026-04-19 03:51 | 7.14810 | 156.12092 | 30984 ft | 389 kts | 94° |
| 2026-04-19 03:52 | 7.14600 | 156.14799 | 30614 ft | 387 kts | 93° |
| 2026-04-19 03:52 | 7.14391 | 156.17492 | 30235 ft | 385 kts | 93° |
| 2026-04-19 03:52 | 7.14183 | 156.20176 | 29857 ft | 383 kts | 93° |
| 2026-04-19 03:52 | 7.13976 | 156.22844 | 29434 ft | 381 kts | 93° |
| 2026-04-19 03:53 | 7.13770 | 156.25490 | 29031 ft | 378 kts | 93° |
| 2026-04-19 03:53 | 7.13566 | 156.28118 | 28637 ft | 375 kts | 94° |
| 2026-04-19 03:53 | 7.13363 | 156.30727 | 28256 ft | 372 kts | 94° |
| 2026-04-19 03:53 | 7.13161 | 156.33316 | 27881 ft | 369 kts | 94° |
| 2026-04-19 03:54 | 7.12961 | 156.35883 | 27508 ft | 367 kts | 94° |
| 2026-04-19 03:54 | 7.12762 | 156.38435 | 27136 ft | 364 kts | 94° |
| 2026-04-19 03:54 | 7.12564 | 156.40964 | 26772 ft | 362 kts | 94° |
| 2026-04-19 03:54 | 7.12368 | 156.43483 | 26409 ft | 360 kts | 94° |
| 2026-04-19 03:55 | 7.12172 | 156.45986 | 26044 ft | 357 kts | 94° |
| 2026-04-19 03:55 | 7.11978 | 156.48471 | 25685 ft | 356 kts | 94° |
| 2026-04-19 03:55 | 7.11784 | 156.50947 | 25327 ft | 354 kts | 94° |
| 2026-04-19 03:55 | 7.11591 | 156.53413 | 24960 ft | 353 kts | 94° |
| 2026-04-19 03:56 | 7.11398 | 156.55868 | 24595 ft | 351 kts | 94° |
| 2026-04-19 03:56 | 7.11206 | 156.58318 | 24222 ft | 351 kts | 94° |
| 2026-04-19 03:56 | 7.11015 | 156.60760 | 23866 ft | 350 kts | 94° |
| 2026-04-19 03:56 | 7.10823 | 156.63198 | 23509 ft | 349 kts | 94° |
| 2026-04-19 03:57 | 7.10632 | 156.65631 | 23094 ft | 348 kts | 94° |
| 2026-04-19 03:57 | 7.10442 | 156.68048 | 22714 ft | 345 kts | 94° |
| 2026-04-19 03:57 | 7.10252 | 156.70451 | 22346 ft | 343 kts | 94° |
| 2026-04-19 03:57 | 7.10065 | 156.72833 | 21988 ft | 341 kts | 94° |
| 2026-04-19 03:58 | 7.09878 | 156.75203 | 21640 ft | 338 kts | 94° |
| 2026-04-19 03:58 | 7.09693 | 156.77552 | 21291 ft | 336 kts | 94° |
| 2026-04-19 03:58 | 7.09508 | 156.79890 | 20948 ft | 334 kts | 94° |
| 2026-04-19 03:58 | 7.09325 | 156.82212 | 20606 ft | 332 kts | 95° |
| 2026-04-19 03:59 | 7.09143 | 156.84519 | 20268 ft | 330 kts | 95° |
| 2026-04-19 03:59 | 7.08961 | 156.86813 | 19932 ft | 328 kts | 95° |
| 2026-04-19 03:59 | 7.08781 | 156.89099 | 19599 ft | 327 kts | 95° |
| 2026-04-19 03:59 | 7.08601 | 156.91373 | 19253 ft | 325 kts | 95° |
| 2026-04-19 04:00 | 7.08421 | 156.93641 | 18916 ft | 325 kts | 95° |
| 2026-04-19 04:00 | 7.08242 | 156.95904 | 18583 ft | 324 kts | 95° |
| 2026-04-19 04:00 | 7.08063 | 156.98160 | 18233 ft | 323 kts | 95° |
| 2026-04-19 04:00 | 7.07884 | 157.00414 | 17859 ft | 322 kts | 95° |
| 2026-04-19 04:01 | 7.07706 | 157.02653 | 17501 ft | 320 kts | 95° |
| 2026-04-19 04:01 | 7.07355 | 157.07070 | 16818 ft | 317 kts | 95° |
| 2026-04-19 04:01 | 7.07179 | 157.09276 | 16481 ft | 315 kts | 95° |
| 2026-04-19 04:02 | 7.07005 | 157.11465 | 16162 ft | 313 kts | 95° |
| 2026-04-19 04:02 | 7.06832 | 157.13643 | 15830 ft | 311 kts | 95° |
| 2026-04-19 04:02 | 7.06659 | 157.15806 | 15506 ft | 309 kts | 95° |
| 2026-04-19 04:02 | 7.06487 | 157.17960 | 15184 ft | 308 kts | 95° |
| 2026-04-19 04:03 | 7.06316 | 157.20104 | 14864 ft | 307 kts | 95° |
| 2026-04-19 04:03 | 7.06146 | 157.22238 | 14541 ft | 305 kts | 94° |
| 2026-04-19 04:03 | 7.05976 | 157.24367 | 14215 ft | 305 kts | 94° |
| 2026-04-19 04:03 | 7.05806 | 157.26489 | 13895 ft | 304 kts | 94° |
| 2026-04-19 04:04 | 7.05637 | 157.28607 | 13536 ft | 304 kts | 94° |
| 2026-04-19 04:04 | 7.05468 | 157.30719 | 13202 ft | 302 kts | 94° |
| 2026-04-19 04:04 | 7.05300 | 157.32820 | 12863 ft | 300 kts | 94° |
| 2026-04-19 04:04 | 7.05132 | 157.34911 | 12536 ft | 299 kts | 94° |
| 2026-04-19 04:05 | 7.04966 | 157.36987 | 12216 ft | 297 kts | 94° |
| 2026-04-19 04:05 | 7.04800 | 157.39051 | 11899 ft | 295 kts | 94° |
| 2026-04-19 04:05 | 7.04635 | 157.41104 | 11583 ft | 293 kts | 94° |
| 2026-04-19 04:05 | 7.04471 | 157.43148 | 11271 ft | 292 kts | 94° |
| 2026-04-19 04:06 | 7.04308 | 157.45179 | 10956 ft | 291 kts | 94° |
| 2026-04-19 04:06 | 7.04146 | 157.47202 | 10646 ft | 289 kts | 94° |
| 2026-04-19 04:06 | 7.03984 | 157.49217 | 10337 ft | 288 kts | 94° |
| 2026-04-19 04:06 | 7.03822 | 157.51224 | 10076 ft | 285 kts | 94° |
| 2026-04-19 04:07 | 7.03664 | 157.53188 | 9927 ft | 278 kts | 94° |
| 2026-04-19 04:07 | 7.03508 | 157.55121 | 9653 ft | 277 kts | 94° |
| 2026-04-19 04:07 | 7.03355 | 157.57021 | 9355 ft | 275 kts | 94° |
| 2026-04-19 04:07 | 7.03201 | 157.58934 | 9062 ft | 273 kts | 94° |
| 2026-04-19 04:08 | 7.03048 | 157.60835 | 8769 ft | 272 kts | 94° |
| 2026-04-19 04:08 | 7.02895 | 157.62726 | 8472 ft | 270 kts | 94° |
| 2026-04-19 04:08 | 7.02744 | 157.64605 | 8196 ft | 268 kts | 94° |
| 2026-04-19 04:08 | 7.02593 | 157.66473 | 7915 ft | 267 kts | 94° |
| 2026-04-19 04:09 | 7.02442 | 157.68332 | 7632 ft | 266 kts | 94° |
| 2026-04-19 04:09 | 7.02292 | 157.70185 | 7346 ft | 265 kts | 94° |
| 2026-04-19 04:09 | 7.02117 | 157.72036 | 7028 ft | 266 kts | 95° |
| 2026-04-19 04:09 | 7.01930 | 157.73880 | 6748 ft | 264 kts | 95° |
| 2026-04-19 04:10 | 7.01741 | 157.75720 | 6468 ft | 264 kts | 95° |
| 2026-04-19 04:10 | 7.01554 | 157.77554 | 6181 ft | 263 kts | 95° |
| 2026-04-19 04:10 | 7.01368 | 157.79383 | 5889 ft | 262 kts | 95° |
| 2026-04-19 04:10 | 7.01183 | 157.81207 | 5604 ft | 261 kts | 95° |
| 2026-04-19 04:11 | 7.00999 | 157.83024 | 5319 ft | 260 kts | 95° |
| 2026-04-19 04:11 | 7.00816 | 157.84832 | 5055 ft | 259 kts | 95° |
| 2026-04-19 04:11 | 7.00634 | 157.86630 | 4833 ft | 255 kts | 95° |
| 2026-04-19 04:11 | 7.00457 | 157.88383 | 4659 ft | 252 kts | 95° |
| 2026-04-19 04:12 | 7.00280 | 157.90129 | 4375 ft | 250 kts | 95° |
| 2026-04-19 04:12 | 7.00105 | 157.91863 | 4112 ft | 249 kts | 95° |
| 2026-04-19 04:12 | 6.99932 | 157.93574 | 4004 ft | 241 kts | 95° |
| 2026-04-19 04:12 | 6.99764 | 157.95235 | 3903 ft | 236 kts | 95° |
| 2026-04-19 04:13 | 6.99600 | 157.96862 | 3781 ft | 231 kts | 95° |
| 2026-04-19 04:13 | 6.99440 | 157.98452 | 3668 ft | 225 kts | 95° |
| 2026-04-19 04:13 | 6.99284 | 157.99990 | 3572 ft | 216 kts | 95° |
| 2026-04-19 04:13 | 6.99132 | 158.01485 | 3363 ft | 214 kts | 95° |
| 2026-04-19 04:14 | 6.98982 | 158.02972 | 3145 ft | 213 kts | 95° |
| 2026-04-19 04:14 | 6.98833 | 158.04446 | 2915 ft | 211 kts | 95° |
| 2026-04-19 04:14 | 6.98684 | 158.05916 | 2680 ft | 211 kts | 95° |
| 2026-04-19 04:14 | 6.98551 | 158.07383 | 2457 ft | 210 kts | 91° |
| 2026-04-19 04:15 | 6.98554 | 158.08848 | 2229 ft | 208 kts | 88° |
| 2026-04-19 04:15 | 6.98563 | 158.10284 | 1972 ft | 203 kts | 90° |
| 2026-04-19 04:15 | 6.98556 | 158.11707 | 1690 ft | 203 kts | 89° |
| 2026-04-19 04:15 | 6.98549 | 158.13100 | 1404 ft | 199 kts | 89° |
| 2026-04-19 04:16 | 6.98543 | 158.14481 | 1155 ft | 189 kts | 89° |
| 2026-04-19 04:16 | 6.98537 | 158.15735 | 931 ft | 172 kts | 88° |
| 2026-04-19 04:16 | 6.98563 | 158.16863 | 761 ft | 153 kts | 85° |
| 2026-04-19 04:16 | 6.98564 | 158.17864 | 721 ft | 136 kts | 90° |
| 2026-04-19 04:17 | 6.98541 | 158.18816 | 486 ft | 137 kts | 91° |
| 2026-04-19 04:17 | 6.98525 | 158.19786 | 125 ft | 136 kts | 90° |
| 2026-04-19 04:17 | 6.98517 | 158.20675 | 17 ft | 98 kts | 92° |
| 2026-04-19 04:17 | 6.98510 | 158.21010 | 17 ft | 13 kts | 89° |
| 2026-04-19 04:18 | 6.98504 | 158.21161 | 17 ft | 15 kts | 98° |
| 2026-04-19 04:18 | 6.98508 | 158.21211 | 16 ft | 1 kts | 304° |
| 2026-04-19 04:18 | 6.98509 | 158.21134 | 17 ft | 24 kts | 270° |
| 2026-04-19 04:18 | 6.98512 | 158.20890 | 16 ft | 43 kts | 271° |
| 2026-04-19 04:19 | 6.98516 | 158.20604 | 17 ft | 32 kts | 270° |
| 2026-04-19 04:19 | 6.98515 | 158.20429 | 16 ft | 18 kts | 268° |
| 2026-04-19 04:19 | 6.98478 | 158.20361 | 16 ft | 5 kts | 200° |
| 2026-04-19 04:19 | 6.98452 | 158.20357 | 17 ft | 12 kts | 185° |
| 2026-04-19 04:20 | 6.98335 | 158.20357 | 17 ft | 19 kts | 179° |
| 2026-04-19 04:20 | 6.98267 | 158.20375 | 17 ft | 9 kts | 141° |
| 2026-04-19 04:20 | 6.98208 | 158.20394 | 16 ft | 7 kts | 176° |
| 2026-04-19 04:20 | 6.98195 | 158.20395 | 16 ft | 0 kts | 177° |
| 2026-04-19 04:21 | 6.98194 | 158.20395 | 16 ft | 0 kts | 177° |